sensor_id;sensor_type;location;lat;lon;timestamp;temperature;humidity
2603;DHT22;1311;47.966;7.958;2024-03-17T00:02:06;9.00;99.90
2603;DHT22;1311;47.966;7.958;2024-03-17T00:04:32;8.90;99.90
2603;DHT22;1311;47.966;7.958;2024-03-17T00:06:59;8.90;99.90
2603;DHT22;1311;47.966;7.958;2024-03-17T00:09:26;8.90;99.90
2603;DHT22;1311;47.966;7.958;2024-03-17T00:11:53;8.90;99.90
2603;DHT22;1311;47.966;7.958;2024-03-17T00:14:19;9.00;99.90
2603;DHT22;1311;47.966;7.958;2024-03-17T00:16:47;9.80;99.90
2603;DHT22;1311;47.966;7.958;2024-03-17T00:19:14;9.00;99.90
2603;DHT22;1311;47.966;7.958;2024-03-17T00:21:40;9.00;99.90
2603;DHT22;1311;47.966;7.958;2024-03-17T00:24:07;9.20;99.90
2603;DHT22;1311;47.966;7.958;2024-03-17T00:26:35;8.80;99.90
2603;DHT22;1311;47.966;7.958;2024-03-17T00:29:02;8.80;99.90
2603;DHT22;1311;47.966;7.958;2024-03-17T00:31:28;8.80;99.90
2603;DHT22;1311;47.966;7.958;2024-03-17T00:33:57;8.70;99.90
2603;DHT22;1311;47.966;7.958;2024-03-17T00:36:23;8.60;99.90
2603;DHT22;1311;47.966;7.958;2024-03-17T00:38:50;8.70;99.90
2603;DHT22;1311;47.966;7.958;2024-03-17T00:41:17;8.70;99.90
2603;DHT22;1311;47.966;7.958;2024-03-17T00:43:46;8.70;99.90
2603;DHT22;1311;47.966;7.958;2024-03-17T00:46:11;8.80;99.90
2603;DHT22;1311;47.966;7.958;2024-03-17T00:48:38;8.80;99.90
2603;DHT22;1311;47.966;7.958;2024-03-17T00:51:05;8.80;99.90
2603;DHT22;1311;47.966;7.958;2024-03-17T00:53:31;8.80;99.90
2603;DHT22;1311;47.966;7.958;2024-03-17T00:55:57;8.70;99.90
2603;DHT22;1311;47.966;7.958;2024-03-17T00:58:25;8.80;99.90
2603;DHT22;1311;47.966;7.958;2024-03-17T01:00:53;8.70;99.90
2603;DHT22;1311;47.966;7.958;2024-03-17T01:03:19;8.80;99.90
2603;DHT22;1311;47.966;7.958;2024-03-17T01:05:46;8.80;99.90
2603;DHT22;1311;47.966;7.958;2024-03-17T01:08:13;8.80;99.90
2603;DHT22;1311;47.966;7.958;2024-03-17T01:10:41;8.80;99.90
2603;DHT22;1311;47.966;7.958;2024-03-17T01:13:07;8.70;99.90
2603;DHT22;1311;47.966;7.958;2024-03-17T01:15:35;8.70;99.90
2603;DHT22;1311;47.966;7.958;2024-03-17T01:18:04;8.70;99.90
2603;DHT22;1311;47.966;7.958;2024-03-17T01:20:31;8.70;99.90
2603;DHT22;1311;47.966;7.958;2024-03-17T01:22:57;8.60;99.90
2603;DHT22;1311;47.966;7.958;2024-03-17T01:25:24;8.70;99.90
2603;DHT22;1311;47.966;7.958;2024-03-17T01:27:51;8.60;99.90
2603;DHT22;1311;47.966;7.958;2024-03-17T01:30:18;8.60;99.90
2603;DHT22;1311;47.966;7.958;2024-03-17T01:32:44;8.70;99.90
2603;DHT22;1311;47.966;7.958;2024-03-17T01:35:12;8.70;99.90
2603;DHT22;1311;47.966;7.958;2024-03-17T01:37:39;8.70;99.90
2603;DHT22;1311;47.966;7.958;2024-03-17T01:40:07;8.70;99.90
2603;DHT22;1311;47.966;7.958;2024-03-17T01:42:34;8.70;99.90
2603;DHT22;1311;47.966;7.958;2024-03-17T01:45:01;8.70;99.90
2603;DHT22;1311;47.966;7.958;2024-03-17T01:47:44;8.70;99.90
2603;DHT22;1311;47.966;7.958;2024-03-17T01:50:13;8.70;99.90
2603;DHT22;1311;47.966;7.958;2024-03-17T01:52:42;8.70;99.90
2603;DHT22;1311;47.966;7.958;2024-03-17T01:55:09;8.70;99.90
2603;DHT22;1311;47.966;7.958;2024-03-17T01:57:35;8.60;99.90
2603;DHT22;1311;47.966;7.958;2024-03-17T02:00:02;8.60;99.90
2603;DHT22;1311;47.966;7.958;2024-03-17T02:02:28;8.50;99.90
2603;DHT22;1311;47.966;7.958;2024-03-17T02:04:55;8.40;99.90
2603;DHT22;1311;47.966;7.958;2024-03-17T02:07:22;8.40;99.90
2603;DHT22;1311;47.966;7.958;2024-03-17T02:09:49;8.50;99.90
2603;DHT22;1311;47.966;7.958;2024-03-17T02:12:14;8.50;99.90
2603;DHT22;1311;47.966;7.958;2024-03-17T02:14:41;8.50;99.90
2603;DHT22;1311;47.966;7.958;2024-03-17T02:17:07;8.50;99.90
2603;DHT22;1311;47.966;7.958;2024-03-17T02:19:34;8.50;99.90
2603;DHT22;1311;47.966;7.958;2024-03-17T02:22:00;8.40;99.90
2603;DHT22;1311;47.966;7.958;2024-03-17T02:24:28;8.30;99.90
2603;DHT22;1311;47.966;7.958;2024-03-17T02:26:53;8.40;99.90
2603;DHT22;1311;47.966;7.958;2024-03-17T02:29:20;8.40;99.90
2603;DHT22;1311;47.966;7.958;2024-03-17T02:31:46;8.30;99.90
2603;DHT22;1311;47.966;7.958;2024-03-17T02:34:13;8.20;99.90
2603;DHT22;1311;47.966;7.958;2024-03-17T02:36:38;8.30;99.90
2603;DHT22;1311;47.966;7.958;2024-03-17T02:39:05;8.30;99.90
2603;DHT22;1311;47.966;7.958;2024-03-17T02:41:51;8.20;99.90
2603;DHT22;1311;47.966;7.958;2024-03-17T02:44:18;8.30;99.90
2603;DHT22;1311;47.966;7.958;2024-03-17T02:46:44;8.30;99.90
2603;DHT22;1311;47.966;7.958;2024-03-17T02:49:11;8.30;99.90
2603;DHT22;1311;47.966;7.958;2024-03-17T02:51:39;8.40;99.90
2603;DHT22;1311;47.966;7.958;2024-03-17T02:54:06;8.30;99.90
2603;DHT22;1311;47.966;7.958;2024-03-17T02:56:33;8.30;99.90
2603;DHT22;1311;47.966;7.958;2024-03-17T02:59:01;8.20;99.90
2603;DHT22;1311;47.966;7.958;2024-03-17T03:01:28;8.10;99.90
2603;DHT22;1311;47.966;7.958;2024-03-17T03:03:54;8.20;99.90
2603;DHT22;1311;47.966;7.958;2024-03-17T03:06:21;8.10;99.90
2603;DHT22;1311;47.966;7.958;2024-03-17T03:08:48;8.10;99.90
2603;DHT22;1311;47.966;7.958;2024-03-17T03:11:16;8.10;99.90
2603;DHT22;1311;47.966;7.958;2024-03-17T03:13:44;8.10;99.90
2603;DHT22;1311;47.966;7.958;2024-03-17T03:16:13;8.10;99.90
2603;DHT22;1311;47.966;7.958;2024-03-17T03:18:41;8.10;99.90
2603;DHT22;1311;47.966;7.958;2024-03-17T03:21:10;8.20;99.90
2603;DHT22;1311;47.966;7.958;2024-03-17T03:23:37;8.20;99.90
2603;DHT22;1311;47.966;7.958;2024-03-17T03:26:04;8.20;99.90
2603;DHT22;1311;47.966;7.958;2024-03-17T03:28:36;8.20;99.90
2603;DHT22;1311;47.966;7.958;2024-03-17T03:31:04;8.20;99.90
2603;DHT22;1311;47.966;7.958;2024-03-17T03:33:33;8.20;99.90
2603;DHT22;1311;47.966;7.958;2024-03-17T03:36:07;8.20;99.90
2603;DHT22;1311;47.966;7.958;2024-03-17T03:38:34;8.10;99.90
2603;DHT22;1311;47.966;7.958;2024-03-17T03:41:06;8.10;99.90
2603;DHT22;1311;47.966;7.958;2024-03-17T03:43:33;8.10;99.90
2603;DHT22;1311;47.966;7.958;2024-03-17T03:46:01;8.00;99.90
2603;DHT22;1311;47.966;7.958;2024-03-17T03:48:28;8.00;99.90
2603;DHT22;1311;47.966;7.958;2024-03-17T03:50:56;7.80;99.90
2603;DHT22;1311;47.966;7.958;2024-03-17T03:53:24;7.70;99.90
2603;DHT22;1311;47.966;7.958;2024-03-17T03:55:51;7.60;99.90
2603;DHT22;1311;47.966;7.958;2024-03-17T03:58:18;7.60;99.90
2603;DHT22;1311;47.966;7.958;2024-03-17T04:00:46;7.50;99.90
2603;DHT22;1311;47.966;7.958;2024-03-17T04:03:13;7.50;99.90
2603;DHT22;1311;47.966;7.958;2024-03-17T04:05:39;7.40;99.90
2603;DHT22;1311;47.966;7.958;2024-03-17T04:08:07;7.40;99.90
2603;DHT22;1311;47.966;7.958;2024-03-17T04:10:35;7.40;99.90
2603;DHT22;1311;47.966;7.958;2024-03-17T04:13:01;7.30;99.90
2603;DHT22;1311;47.966;7.958;2024-03-17T04:15:29;8.20;99.90
2603;DHT22;1311;47.966;7.958;2024-03-17T04:17:56;7.50;99.90
2603;DHT22;1311;47.966;7.958;2024-03-17T04:20:23;7.50;99.90
2603;DHT22;1311;47.966;7.958;2024-03-17T04:22:49;7.40;99.90
2603;DHT22;1311;47.966;7.958;2024-03-17T04:25:17;7.40;99.90
2603;DHT22;1311;47.966;7.958;2024-03-17T04:27:44;7.30;99.90
2603;DHT22;1311;47.966;7.958;2024-03-17T04:30:11;7.10;99.90
2603;DHT22;1311;47.966;7.958;2024-03-17T04:32:39;7.00;99.90
2603;DHT22;1311;47.966;7.958;2024-03-17T04:35:06;7.10;99.90
2603;DHT22;1311;47.966;7.958;2024-03-17T04:37:33;6.90;99.90
2603;DHT22;1311;47.966;7.958;2024-03-17T04:40:05;6.90;99.90
2603;DHT22;1311;47.966;7.958;2024-03-17T04:42:36;6.90;99.90
2603;DHT22;1311;47.966;7.958;2024-03-17T04:45:06;6.90;99.90
2603;DHT22;1311;47.966;7.958;2024-03-17T04:47:35;6.90;99.90
2603;DHT22;1311;47.966;7.958;2024-03-17T04:50:02;6.80;99.90
2603;DHT22;1311;47.966;7.958;2024-03-17T04:52:29;6.70;99.90
2603;DHT22;1311;47.966;7.958;2024-03-17T04:54:56;6.70;99.90
2603;DHT22;1311;47.966;7.958;2024-03-17T04:57:23;6.70;99.90
2603;DHT22;1311;47.966;7.958;2024-03-17T04:59:51;6.70;99.90
2603;DHT22;1311;47.966;7.958;2024-03-17T05:02:17;6.60;99.90
2603;DHT22;1311;47.966;7.958;2024-03-17T05:04:44;6.70;99.90
2603;DHT22;1311;47.966;7.958;2024-03-17T05:07:11;6.50;99.90
2603;DHT22;1311;47.966;7.958;2024-03-17T05:09:38;6.40;99.90
2603;DHT22;1311;47.966;7.958;2024-03-17T05:12:05;6.40;99.90
2603;DHT22;1311;47.966;7.958;2024-03-17T05:14:32;6.40;99.90
2603;DHT22;1311;47.966;7.958;2024-03-17T05:17:00;6.30;99.90
2603;DHT22;1311;47.966;7.958;2024-03-17T05:19:27;6.50;99.90
2603;DHT22;1311;47.966;7.958;2024-03-17T05:21:53;6.40;99.90
2603;DHT22;1311;47.966;7.958;2024-03-17T05:24:20;6.40;99.90
2603;DHT22;1311;47.966;7.958;2024-03-17T05:26:47;6.20;99.90
2603;DHT22;1311;47.966;7.958;2024-03-17T05:29:13;6.20;99.90
2603;DHT22;1311;47.966;7.958;2024-03-17T05:31:40;6.10;99.90
2603;DHT22;1311;47.966;7.958;2024-03-17T05:34:10;6.10;99.90
2603;DHT22;1311;47.966;7.958;2024-03-17T05:36:37;6.10;99.90
2603;DHT22;1311;47.966;7.958;2024-03-17T05:39:04;6.20;99.90
2603;DHT22;1311;47.966;7.958;2024-03-17T05:41:30;6.20;99.90
2603;DHT22;1311;47.966;7.958;2024-03-17T05:43:57;6.20;99.90
2603;DHT22;1311;47.966;7.958;2024-03-17T05:46:25;6.30;99.90
2603;DHT22;1311;47.966;7.958;2024-03-17T05:48:52;6.30;99.90
2603;DHT22;1311;47.966;7.958;2024-03-17T05:51:21;6.40;99.90
2603;DHT22;1311;47.966;7.958;2024-03-17T05:53:48;6.30;99.90
2603;DHT22;1311;47.966;7.958;2024-03-17T05:56:15;6.40;99.90
2603;DHT22;1311;47.966;7.958;2024-03-17T05:58:42;6.50;99.90
2603;DHT22;1311;47.966;7.958;2024-03-17T06:01:09;6.50;99.90
2603;DHT22;1311;47.966;7.958;2024-03-17T06:03:37;6.60;99.90
2603;DHT22;1311;47.966;7.958;2024-03-17T06:06:05;6.70;99.90
2603;DHT22;1311;47.966;7.958;2024-03-17T06:08:34;6.70;99.90
2603;DHT22;1311;47.966;7.958;2024-03-17T06:11:01;6.80;99.90
2603;DHT22;1311;47.966;7.958;2024-03-17T06:13:28;6.80;99.90
2603;DHT22;1311;47.966;7.958;2024-03-17T06:15:55;6.80;99.90
2603;DHT22;1311;47.966;7.958;2024-03-17T06:18:26;6.90;99.90
2603;DHT22;1311;47.966;7.958;2024-03-17T06:20:53;7.00;99.90
2603;DHT22;1311;47.966;7.958;2024-03-17T06:23:19;7.10;99.90
2603;DHT22;1311;47.966;7.958;2024-03-17T06:25:48;7.10;99.90
2603;DHT22;1311;47.966;7.958;2024-03-17T06:28:17;7.10;99.90
2603;DHT22;1311;47.966;7.958;2024-03-17T06:30:44;7.10;99.90
2603;DHT22;1311;47.966;7.958;2024-03-17T06:33:13;7.20;99.90
2603;DHT22;1311;47.966;7.958;2024-03-17T06:35:40;7.10;99.90
2603;DHT22;1311;47.966;7.958;2024-03-17T06:38:06;7.20;99.90
2603;DHT22;1311;47.966;7.958;2024-03-17T06:40:35;7.20;99.90
2603;DHT22;1311;47.966;7.958;2024-03-17T06:43:04;7.30;99.90
2603;DHT22;1311;47.966;7.958;2024-03-17T06:45:30;7.40;99.90
2603;DHT22;1311;47.966;7.958;2024-03-17T06:47:57;7.50;99.90
2603;DHT22;1311;47.966;7.958;2024-03-17T06:50:24;7.60;99.90
2603;DHT22;1311;47.966;7.958;2024-03-17T06:52:51;7.70;99.90
2603;DHT22;1311;47.966;7.958;2024-03-17T06:55:18;7.70;99.90
2603;DHT22;1311;47.966;7.958;2024-03-17T06:57:46;7.80;99.90
2603;DHT22;1311;47.966;7.958;2024-03-17T07:00:15;8.00;99.90
2603;DHT22;1311;47.966;7.958;2024-03-17T07:02:43;8.10;99.90
2603;DHT22;1311;47.966;7.958;2024-03-17T07:05:13;8.10;99.90
2603;DHT22;1311;47.966;7.958;2024-03-17T07:07:40;8.20;99.90
2603;DHT22;1311;47.966;7.958;2024-03-17T07:10:08;8.30;99.90
2603;DHT22;1311;47.966;7.958;2024-03-17T07:12:36;8.30;99.90
2603;DHT22;1311;47.966;7.958;2024-03-17T07:15:04;8.40;99.90
2603;DHT22;1311;47.966;7.958;2024-03-17T07:17:32;8.40;99.90
2603;DHT22;1311;47.966;7.958;2024-03-17T07:19:59;8.50;99.90
2603;DHT22;1311;47.966;7.958;2024-03-17T07:22:26;8.60;99.90
2603;DHT22;1311;47.966;7.958;2024-03-17T07:24:53;8.60;99.90
2603;DHT22;1311;47.966;7.958;2024-03-17T07:27:22;8.70;99.90
2603;DHT22;1311;47.966;7.958;2024-03-17T07:29:49;8.80;99.90
2603;DHT22;1311;47.966;7.958;2024-03-17T07:32:16;8.80;99.90
2603;DHT22;1311;47.966;7.958;2024-03-17T07:34:44;8.90;99.90
2603;DHT22;1311;47.966;7.958;2024-03-17T07:37:10;9.20;99.90
2603;DHT22;1311;47.966;7.958;2024-03-17T07:39:37;9.30;99.90
2603;DHT22;1311;47.966;7.958;2024-03-17T07:42:04;9.50;99.90
2603;DHT22;1311;47.966;7.958;2024-03-17T07:44:32;9.50;99.90
2603;DHT22;1311;47.966;7.958;2024-03-17T07:47:00;9.30;99.90
2603;DHT22;1311;47.966;7.958;2024-03-17T07:49:26;9.70;99.90
2603;DHT22;1311;47.966;7.958;2024-03-17T07:51:54;9.60;99.90
2603;DHT22;1311;47.966;7.958;2024-03-17T07:54:23;9.60;99.90
2603;DHT22;1311;47.966;7.958;2024-03-17T07:56:49;9.70;99.90
2603;DHT22;1311;47.966;7.958;2024-03-17T07:59:16;9.90;99.90
2603;DHT22;1311;47.966;7.958;2024-03-17T08:01:43;10.50;99.90
2603;DHT22;1311;47.966;7.958;2024-03-17T08:04:10;10.40;99.90
2603;DHT22;1311;47.966;7.958;2024-03-17T08:06:37;10.60;99.90
2603;DHT22;1311;47.966;7.958;2024-03-17T08:09:05;10.80;99.90
2603;DHT22;1311;47.966;7.958;2024-03-17T08:11:33;10.80;99.90
2603;DHT22;1311;47.966;7.958;2024-03-17T08:14:00;10.90;99.90
2603;DHT22;1311;47.966;7.958;2024-03-17T08:16:27;12.00;99.90
2603;DHT22;1311;47.966;7.958;2024-03-17T08:18:55;11.30;99.90
2603;DHT22;1311;47.966;7.958;2024-03-17T08:21:21;11.40;99.90
2603;DHT22;1311;47.966;7.958;2024-03-17T08:23:48;11.50;99.90
2603;DHT22;1311;47.966;7.958;2024-03-17T08:26:16;11.60;99.90
2603;DHT22;1311;47.966;7.958;2024-03-17T08:28:43;11.70;99.90
2603;DHT22;1311;47.966;7.958;2024-03-17T08:31:10;11.80;99.90
2603;DHT22;1311;47.966;7.958;2024-03-17T08:33:38;12.00;99.90
2603;DHT22;1311;47.966;7.958;2024-03-17T08:36:06;12.10;99.90
2603;DHT22;1311;47.966;7.958;2024-03-17T08:38:37;12.20;99.90
2603;DHT22;1311;47.966;7.958;2024-03-17T08:41:05;12.40;99.90
2603;DHT22;1311;47.966;7.958;2024-03-17T08:43:34;12.60;99.90
2603;DHT22;1311;47.966;7.958;2024-03-17T08:46:02;12.60;99.90
2603;DHT22;1311;47.966;7.958;2024-03-17T08:48:31;12.80;99.90
2603;DHT22;1311;47.966;7.958;2024-03-17T08:50:59;12.80;99.90
2603;DHT22;1311;47.966;7.958;2024-03-17T08:53:27;13.00;99.90
2603;DHT22;1311;47.966;7.958;2024-03-17T08:55:54;13.20;99.90
2603;DHT22;1311;47.966;7.958;2024-03-17T08:58:21;13.10;99.90
2603;DHT22;1311;47.966;7.958;2024-03-17T09:00:49;13.20;99.90
2603;DHT22;1311;47.966;7.958;2024-03-17T09:03:16;13.20;99.90
2603;DHT22;1311;47.966;7.958;2024-03-17T09:05:45;13.40;99.90
2603;DHT22;1311;47.966;7.958;2024-03-17T09:08:16;13.60;99.90
2603;DHT22;1311;47.966;7.958;2024-03-17T09:10:46;13.60;99.90
2603;DHT22;1311;47.966;7.958;2024-03-17T09:13:14;13.70;99.90
2603;DHT22;1311;47.966;7.958;2024-03-17T09:15:50;14.80;99.90
2603;DHT22;1311;47.966;7.958;2024-03-17T09:18:17;14.00;99.90
2603;DHT22;1311;47.966;7.958;2024-03-17T09:20:44;13.80;99.90
2603;DHT22;1311;47.966;7.958;2024-03-17T09:23:11;13.70;99.90
2603;DHT22;1311;47.966;7.958;2024-03-17T09:25:38;13.70;99.90
2603;DHT22;1311;47.966;7.958;2024-03-17T09:28:05;13.90;99.90
2603;DHT22;1311;47.966;7.958;2024-03-17T09:30:31;13.90;99.90
2603;DHT22;1311;47.966;7.958;2024-03-17T09:32:59;14.10;99.90
2603;DHT22;1311;47.966;7.958;2024-03-17T09:35:26;14.10;99.90
2603;DHT22;1311;47.966;7.958;2024-03-17T09:37:53;14.20;99.90
2603;DHT22;1311;47.966;7.958;2024-03-17T09:40:19;14.30;99.90
2603;DHT22;1311;47.966;7.958;2024-03-17T09:42:46;14.20;99.90
2603;DHT22;1311;47.966;7.958;2024-03-17T09:45:15;13.90;99.90
2603;DHT22;1311;47.966;7.958;2024-03-17T09:47:43;13.60;99.90
2603;DHT22;1311;47.966;7.958;2024-03-17T09:50:13;13.60;99.90
2603;DHT22;1311;47.966;7.958;2024-03-17T09:52:42;13.60;99.90
2603;DHT22;1311;47.966;7.958;2024-03-17T09:55:13;13.60;99.90
2603;DHT22;1311;47.966;7.958;2024-03-17T09:57:42;13.70;99.90
2603;DHT22;1311;47.966;7.958;2024-03-17T10:00:11;13.80;99.90
2603;DHT22;1311;47.966;7.958;2024-03-17T10:02:42;13.80;99.90
2603;DHT22;1311;47.966;7.958;2024-03-17T10:05:20;13.90;99.90
2603;DHT22;1311;47.966;7.958;2024-03-17T10:07:47;15.00;99.90
2603;DHT22;1311;47.966;7.958;2024-03-17T10:10:15;14.00;99.90
2603;DHT22;1311;47.966;7.958;2024-03-17T10:12:43;14.70;99.90
2603;DHT22;1311;47.966;7.958;2024-03-17T10:15:11;14.30;99.90
2603;DHT22;1311;47.966;7.958;2024-03-17T10:17:37;13.70;99.90
2603;DHT22;1311;47.966;7.958;2024-03-17T10:20:15;13.70;99.90
2603;DHT22;1311;47.966;7.958;2024-03-17T10:23:03;13.60;99.90
2603;DHT22;1311;47.966;7.958;2024-03-17T10:25:32;13.40;99.90
2603;DHT22;1311;47.966;7.958;2024-03-17T10:28:00;13.50;99.90
2603;DHT22;1311;47.966;7.958;2024-03-17T10:30:28;13.40;99.90
2603;DHT22;1311;47.966;7.958;2024-03-17T10:32:57;13.30;99.90
2603;DHT22;1311;47.966;7.958;2024-03-17T10:35:32;13.30;99.90
2603;DHT22;1311;47.966;7.958;2024-03-17T10:38:01;13.30;99.90
2603;DHT22;1311;47.966;7.958;2024-03-17T10:40:30;13.40;99.90
2603;DHT22;1311;47.966;7.958;2024-03-17T10:42:59;13.40;99.90
2603;DHT22;1311;47.966;7.958;2024-03-17T10:45:28;13.40;99.90
2603;DHT22;1311;47.966;7.958;2024-03-17T10:47:59;13.50;99.90
2603;DHT22;1311;47.966;7.958;2024-03-17T10:50:30;13.50;99.90
2603;DHT22;1311;47.966;7.958;2024-03-17T10:53:02;13.60;99.90
2603;DHT22;1311;47.966;7.958;2024-03-17T10:55:38;13.60;99.90
2603;DHT22;1311;47.966;7.958;2024-03-17T10:58:16;13.50;99.90
2603;DHT22;1311;47.966;7.958;2024-03-17T11:00:49;13.50;99.90
2603;DHT22;1311;47.966;7.958;2024-03-17T11:03:17;13.40;99.90
2603;DHT22;1311;47.966;7.958;2024-03-17T11:05:46;13.40;99.90
2603;DHT22;1311;47.966;7.958;2024-03-17T11:08:17;13.50;99.90
2603;DHT22;1311;47.966;7.958;2024-03-17T11:10:49;13.30;99.90
2603;DHT22;1311;47.966;7.958;2024-03-17T11:13:25;13.60;99.90
2603;DHT22;1311;47.966;7.958;2024-03-17T11:15:52;14.00;99.90
2603;DHT22;1311;47.966;7.958;2024-03-17T11:18:39;14.40;99.90
2603;DHT22;1311;47.966;7.958;2024-03-17T11:21:07;14.40;99.90
2603;DHT22;1311;47.966;7.958;2024-03-17T11:23:55;14.50;99.90
2603;DHT22;1311;47.966;7.958;2024-03-17T11:26:27;14.60;99.90
2603;DHT22;1311;47.966;7.958;2024-03-17T11:28:54;14.50;99.90
2603;DHT22;1311;47.966;7.958;2024-03-17T11:31:38;14.50;99.90
2603;DHT22;1311;47.966;7.958;2024-03-17T11:36:52;14.40;99.90
2603;DHT22;1311;47.966;7.958;2024-03-17T11:39:20;14.40;99.90
2603;DHT22;1311;47.966;7.958;2024-03-17T11:41:51;14.50;99.90
2603;DHT22;1311;47.966;7.958;2024-03-17T11:44:25;14.60;99.90
2603;DHT22;1311;47.966;7.958;2024-03-17T11:46:54;14.70;99.90
2603;DHT22;1311;47.966;7.958;2024-03-17T11:49:22;14.60;99.90
2603;DHT22;1311;47.966;7.958;2024-03-17T11:51:49;14.70;99.90
2603;DHT22;1311;47.966;7.958;2024-03-17T11:54:16;14.70;99.90
2603;DHT22;1311;47.966;7.958;2024-03-17T11:56:45;14.90;99.90
2603;DHT22;1311;47.966;7.958;2024-03-17T11:59:11;15.10;99.90
2603;DHT22;1311;47.966;7.958;2024-03-17T12:01:39;15.10;99.90
2603;DHT22;1311;47.966;7.958;2024-03-17T12:04:05;15.10;99.90
2603;DHT22;1311;47.966;7.958;2024-03-17T12:06:33;14.90;99.90
2603;DHT22;1311;47.966;7.958;2024-03-17T12:09:10;15.00;99.90
2603;DHT22;1311;47.966;7.958;2024-03-17T12:11:37;15.00;99.90
2603;DHT22;1311;47.966;7.958;2024-03-17T12:14:15;14.60;99.90
2603;DHT22;1311;47.966;7.958;2024-03-17T12:16:50;14.50;99.90
2603;DHT22;1311;47.966;7.958;2024-03-17T12:19:17;14.30;99.90
2603;DHT22;1311;47.966;7.958;2024-03-17T12:21:45;14.20;99.90
2603;DHT22;1311;47.966;7.958;2024-03-17T12:24:15;14.30;99.90
2603;DHT22;1311;47.966;7.958;2024-03-17T12:26:43;14.00;99.90
2603;DHT22;1311;47.966;7.958;2024-03-17T12:29:35;13.90;99.90
2603;DHT22;1311;47.966;7.958;2024-03-17T12:32:04;14.10;99.90
2603;DHT22;1311;47.966;7.958;2024-03-17T12:34:32;14.10;99.90
2603;DHT22;1311;47.966;7.958;2024-03-17T12:37:00;14.20;99.90
2603;DHT22;1311;47.966;7.958;2024-03-17T12:39:27;14.40;99.90
2603;DHT22;1311;47.966;7.958;2024-03-17T12:42:02;14.40;99.90
2603;DHT22;1311;47.966;7.958;2024-03-17T12:44:28;14.40;99.90
2603;DHT22;1311;47.966;7.958;2024-03-17T12:46:57;14.30;99.90
2603;DHT22;1311;47.966;7.958;2024-03-17T12:49:23;14.20;99.90
2603;DHT22;1311;47.966;7.958;2024-03-17T12:51:51;14.40;99.90
2603;DHT22;1311;47.966;7.958;2024-03-17T12:54:20;14.60;99.90
2603;DHT22;1311;47.966;7.958;2024-03-17T12:56:48;14.60;99.90
2603;DHT22;1311;47.966;7.958;2024-03-17T12:59:40;14.60;99.90
2603;DHT22;1311;47.966;7.958;2024-03-17T13:02:42;14.50;99.90
2603;DHT22;1311;47.966;7.958;2024-03-17T13:05:17;14.30;99.90
2603;DHT22;1311;47.966;7.958;2024-03-17T13:07:43;14.30;99.90
2603;DHT22;1311;47.966;7.958;2024-03-17T13:10:13;14.40;99.90
2603;DHT22;1311;47.966;7.958;2024-03-17T13:12:39;14.40;99.90
2603;DHT22;1311;47.966;7.958;2024-03-17T13:15:09;14.00;99.90
2603;DHT22;1311;47.966;7.958;2024-03-17T13:17:36;13.90;99.90
2603;DHT22;1311;47.966;7.958;2024-03-17T13:20:06;14.00;99.90
2603;DHT22;1311;47.966;7.958;2024-03-17T13:22:34;14.00;99.90
2603;DHT22;1311;47.966;7.958;2024-03-17T13:25:01;14.00;99.90
2603;DHT22;1311;47.966;7.958;2024-03-17T13:27:28;14.00;99.90
2603;DHT22;1311;47.966;7.958;2024-03-17T13:29:55;14.10;99.90
2603;DHT22;1311;47.966;7.958;2024-03-17T13:32:22;14.20;99.90
2603;DHT22;1311;47.966;7.958;2024-03-17T13:34:49;14.30;99.90
2603;DHT22;1311;47.966;7.958;2024-03-17T13:37:18;14.50;99.90
2603;DHT22;1311;47.966;7.958;2024-03-17T13:39:44;14.70;99.90
2603;DHT22;1311;47.966;7.958;2024-03-17T13:42:12;14.90;99.90
2603;DHT22;1311;47.966;7.958;2024-03-17T13:44:39;15.00;99.90
2603;DHT22;1311;47.966;7.958;2024-03-17T13:47:07;15.20;99.90
2603;DHT22;1311;47.966;7.958;2024-03-17T13:49:34;15.20;99.90
2603;DHT22;1311;47.966;7.958;2024-03-17T13:52:01;15.00;99.90
2603;DHT22;1311;47.966;7.958;2024-03-17T13:54:31;15.10;99.90
2603;DHT22;1311;47.966;7.958;2024-03-17T13:57:02;15.60;99.90
2603;DHT22;1311;47.966;7.958;2024-03-17T13:59:30;15.40;99.90
2603;DHT22;1311;47.966;7.958;2024-03-17T14:01:57;15.60;99.90
2603;DHT22;1311;47.966;7.958;2024-03-17T14:04:24;15.70;99.90
2603;DHT22;1311;47.966;7.958;2024-03-17T14:06:51;15.70;99.90
2603;DHT22;1311;47.966;7.958;2024-03-17T14:09:18;15.60;99.90
2603;DHT22;1311;47.966;7.958;2024-03-17T14:11:56;15.80;99.90
2603;DHT22;1311;47.966;7.958;2024-03-17T14:14:23;15.70;99.90
2603;DHT22;1311;47.966;7.958;2024-03-17T14:16:50;15.80;99.90
2603;DHT22;1311;47.966;7.958;2024-03-17T14:19:17;15.80;99.90
2603;DHT22;1311;47.966;7.958;2024-03-17T14:21:43;15.80;99.90
2603;DHT22;1311;47.966;7.958;2024-03-17T14:24:10;15.80;99.90
2603;DHT22;1311;47.966;7.958;2024-03-17T14:26:37;16.00;99.90
2603;DHT22;1311;47.966;7.958;2024-03-17T14:29:06;15.70;99.90
2603;DHT22;1311;47.966;7.958;2024-03-17T14:31:33;15.30;99.90
2603;DHT22;1311;47.966;7.958;2024-03-17T14:34:02;15.20;99.90
2603;DHT22;1311;47.966;7.958;2024-03-17T14:36:30;15.10;99.90
2603;DHT22;1311;47.966;7.958;2024-03-17T14:38:58;14.90;99.90
2603;DHT22;1311;47.966;7.958;2024-03-17T14:41:27;14.60;99.90
2603;DHT22;1311;47.966;7.958;2024-03-17T14:43:57;14.50;99.90
2603;DHT22;1311;47.966;7.958;2024-03-17T14:46:25;14.60;99.90
2603;DHT22;1311;47.966;7.958;2024-03-17T14:48:53;14.50;99.90
2603;DHT22;1311;47.966;7.958;2024-03-17T14:51:20;14.70;99.90
2603;DHT22;1311;47.966;7.958;2024-03-17T14:53:47;14.70;99.90
2603;DHT22;1311;47.966;7.958;2024-03-17T14:56:15;14.50;99.90
2603;DHT22;1311;47.966;7.958;2024-03-17T14:58:42;14.50;99.90
2603;DHT22;1311;47.966;7.958;2024-03-17T15:01:09;14.50;99.90
2603;DHT22;1311;47.966;7.958;2024-03-17T15:03:38;14.30;99.90
2603;DHT22;1311;47.966;7.958;2024-03-17T15:06:09;14.20;99.90
2603;DHT22;1311;47.966;7.958;2024-03-17T15:08:36;14.00;99.90
2603;DHT22;1311;47.966;7.958;2024-03-17T15:11:03;14.00;99.90
2603;DHT22;1311;47.966;7.958;2024-03-17T15:13:29;13.70;99.90
2603;DHT22;1311;47.966;7.958;2024-03-17T15:15:56;13.80;99.90
2603;DHT22;1311;47.966;7.958;2024-03-17T15:18:23;13.80;99.90
2603;DHT22;1311;47.966;7.958;2024-03-17T15:20:53;13.90;99.90
2603;DHT22;1311;47.966;7.958;2024-03-17T15:23:20;13.80;99.90
2603;DHT22;1311;47.966;7.958;2024-03-17T15:25:47;13.80;99.90
2603;DHT22;1311;47.966;7.958;2024-03-17T15:28:14;13.70;99.90
2603;DHT22;1311;47.966;7.958;2024-03-17T15:30:40;13.80;99.90
2603;DHT22;1311;47.966;7.958;2024-03-17T15:33:07;13.70;99.90
2603;DHT22;1311;47.966;7.958;2024-03-17T15:35:35;13.60;99.90
2603;DHT22;1311;47.966;7.958;2024-03-17T15:38:04;13.30;99.90
2603;DHT22;1311;47.966;7.958;2024-03-17T15:40:32;13.80;99.90
2603;DHT22;1311;47.966;7.958;2024-03-17T15:43:00;13.10;99.90
2603;DHT22;1311;47.966;7.958;2024-03-17T15:45:27;13.00;99.90
2603;DHT22;1311;47.966;7.958;2024-03-17T15:47:54;13.00;99.90
2603;DHT22;1311;47.966;7.958;2024-03-17T15:50:22;12.90;99.90
2603;DHT22;1311;47.966;7.958;2024-03-17T15:52:49;12.80;99.90
2603;DHT22;1311;47.966;7.958;2024-03-17T15:55:18;12.80;99.90
2603;DHT22;1311;47.966;7.958;2024-03-17T15:57:45;12.80;99.90
2603;DHT22;1311;47.966;7.958;2024-03-17T16:00:13;12.80;99.90
2603;DHT22;1311;47.966;7.958;2024-03-17T16:02:42;12.60;99.90
2603;DHT22;1311;47.966;7.958;2024-03-17T16:05:10;12.50;99.90
2603;DHT22;1311;47.966;7.958;2024-03-17T16:07:39;12.50;99.90
2603;DHT22;1311;47.966;7.958;2024-03-17T16:10:08;12.60;99.90
2603;DHT22;1311;47.966;7.958;2024-03-17T16:12:38;12.60;99.90
2603;DHT22;1311;47.966;7.958;2024-03-17T16:15:06;12.60;99.90
2603;DHT22;1311;47.966;7.958;2024-03-17T16:17:33;12.50;99.90
2603;DHT22;1311;47.966;7.958;2024-03-17T16:20:04;12.50;99.90